Time;durP1;ratioP1;P1;durP2;ratioP2;P2;SDS_P1;SDS_P2;PMS_P1;PMS_P2;Temp;Humidity;BMP_temperature;BMP_pressure;BME280_temperature;BME280_humidity;BME280_pressure;Samples;Min_cycle;Max_cycle;Signal;HPM_P1;HPM_P2
2023/06/22 00:00:27;;;;;;;9.52;4.47;;;;;;;26.36;51.36;101040.59;4929005;29;19914;-84
2023/06/22 00:03:17;;;;;;;;;;;;;;;26.35;51.14;101047.41;4947042;28;20053;-83
2023/06/22 00:06:12;;;;;;;8.88;5.15;;;;;;;26.29;51.86;101046.28;4937628;29;19919;-84
2023/06/22 00:09:07;;;;;;;19.23;6.40;;;;;;;26.21;52.12;101055.88;4929470;29;20055;-84
2023/06/22 00:12:01;;;;;;;10.65;4.78;;;;;;;26.18;52.24;101042.78;4927422;29;20050;-84
2023/06/22 00:14:51;;;;;;;18.15;4.80;;;;;;;26.10;52.32;101043.25;4923902;29;20043;-84
2023/06/22 00:17:45;;;;;;;12.88;4.70;;;;;;;26.21;51.85;101049.53;4935650;29;20054;-84
2023/06/22 00:20:38;;;;;;;;;;;;;;;26.15;52.39;101056.75;4920630;29;20047;-84
2023/06/22 00:23:34;;;;;;;11.52;5.20;;;;;;;26.17;52.06;101046.75;4931234;28;19919;-84
2023/06/22 00:26:28;;;;;;;8.40;4.30;;;;;;;26.17;51.96;101041.19;4921585;29;20051;-84
2023/06/22 00:29:22;;;;;;;17.80;6.00;;;;;;;26.28;51.63;101033.53;4914786;29;20055;-83
2023/06/22 00:32:17;;;;;;;13.05;5.18;;;;;;;26.18;52.39;101044.75;4917561;29;20047;-84
2023/06/22 00:35:12;;;;;;;13.82;5.28;;;;;;;26.03;52.65;101034.97;4934541;29;20038;-83
2023/06/22 00:38:05;;;;;;;;;;;;;;;26.05;52.24;101040.94;4928508;29;20529;-84
2023/06/22 00:40:59;;;;;;;10.98;4.55;;;;;;;26.17;51.87;101032.81;4920664;29;19915;-84
2023/06/22 00:43:51;;;;;;;;;;;;;;;26.19;52.11;101044.34;4925139;29;20062;-84
2023/06/22 00:46:43;;;;;;;17.98;4.78;;;;;;;26.09;51.21;101036.09;4941719;29;19919;-84
2023/06/22 00:49:38;;;;;;;13.95;4.85;;;;;;;25.75;52.54;101024.88;4929419;29;20047;-84
2023/06/22 00:52:30;;;;;;;;;;;;;;;26.04;51.48;101022.59;4939252;29;20047;-84
2023/06/22 00:55:25;;;;;;;9.52;5.25;;;;;;;26.02;51.56;101027.78;4941446;29;19915;-84
2023/06/22 00:58:21;;;;;;;12.63;5.30;;;;;;;25.97;52.63;101037.41;4916542;29;20047;-84
2023/06/22 01:01:16;;;;;;;9.82;6.13;;;;;;;25.94;53.20;101024.31;4926222;29;20611;-84
2023/06/22 01:04:08;;;;;;;;;;;;;;;25.73;53.84;101036.44;4937269;29;20055;-84
2023/06/22 01:07:19;;;;;;;17.58;6.68;;;;;;;25.62;54.60;101029.34;4939674;29;19926;-83
2023/06/22 01:10:31;;;;;;;11.50;6.75;;;;;;;25.81;53.65;101028.78;4933054;29;20054;-83
2023/06/22 01:13:44;;;;;;;20.60;7.63;;;;;;;25.47;55.48;101025.84;4943089;29;20043;-83
2023/06/22 01:16:39;;;;;;;17.92;6.97;;;;;;;25.30;56.04;101024.78;4912018;29;20051;-84
2023/06/22 01:19:51;;;;;;;;;;;;;;;25.40;56.23;101028.69;4961175;29;20046;-84
2023/06/22 01:23:13;;;;;;;13.98;6.00;;;;;;;25.60;55.29;101026.19;4949571;29;20331;-84
2023/06/22 01:26:34;;;;;;;15.07;5.68;;;;;;;25.79;54.45;101039.56;4909862;29;20566;-84
2023/06/22 01:29:30;;;;;;;10.15;5.80;;;;;;;25.75;54.77;101039.56;4929076;29;20062;-84
2023/06/22 01:32:25;;;;;;;12.68;7.22;;;;;;;25.74;55.31;101042.78;4927142;29;20047;-84
2023/06/22 01:35:17;;;;;;;17.67;7.10;;;;;;;25.73;54.96;101036.44;4925907;29;20051;-84
2023/06/22 01:38:13;;;;;;;14.05;8.07;;;;;;;25.68;55.63;101036.06;4925541;29;20055;-84
2023/06/22 01:41:07;;;;;;;16.17;8.07;;;;;;;25.55;55.95;101036.56;4939491;29;20047;-84
2023/06/22 01:44:02;;;;;;;14.38;8.70;;;;;;;25.59;55.25;101041.31;4936410;29;20051;-84
2023/06/22 01:46:57;;;;;;;20.02;7.07;;;;;;;25.53;55.53;101043.72;4949907;29;20054;-84
2023/06/22 01:49:52;;;;;;;14.57;6.88;;;;;;;25.45;55.80;101031.03;4931326;29;20043;-84
2023/06/22 01:52:46;;;;;;;21.20;6.82;;;;;;;25.36;55.91;101031.50;4915658;29;20055;-83
2023/06/22 01:55:41;;;;;;;15.00;6.38;;;;;;;25.26;56.29;101034.34;4926994;29;20047;-84
2023/06/22 01:58:34;;;;;;;;;;;;;;;25.31;55.86;101031.94;4925633;29;20051;-84
2023/06/22 02:01:32;;;;;;;13.05;6.53;;;;;;;25.33;56.25;101037.91;4927377;29;19915;-84
2023/06/22 02:04:30;;;;;;;25.35;6.90;;;;;;;25.26;56.26;101046.28;4912958;29;20050;-83
2023/06/22 02:07:28;;;;;;;15.40;6.22;;;;;;;25.22;56.42;101045.50;4916909;29;20051;-84
2023/06/22 02:10:25;;;;;;;13.75;5.78;;;;;;;25.16;56.58;101040.78;4933485;29;20059;-84
2023/06/22 02:13:19;;;;;;;13.65;6.63;;;;;;;24.99;57.43;101048.03;4912277;29;20090;-84
2023/06/22 02:16:15;;;;;;;15.65;6.65;;;;;;;25.11;56.87;101045.56;4930528;29;20051;-83
2023/06/22 02:19:08;;;;;;;19.80;5.90;;;;;;;25.18;56.90;101038.38;4943052;29;20043;-84
2023/06/22 02:22:02;;;;;;;12.43;6.78;;;;;;;25.10;56.95;101049.56;4930269;29;20050;-84
2023/06/22 02:24:52;;;;;;;;;;;;;;;25.08;57.30;101045.59;4942713;29;20058;-83
2023/06/22 02:27:47;;;;;;;14.32;7.25;;;;;;;25.12;57.06;101046.38;4958068;28;19918;-83
2023/06/22 02:30:42;;;;;;;16.98;7.18;;;;;;;25.13;56.81;101042.41;4949110;29;20050;-84
2023/06/22 02:33:37;;;;;;;18.92;7.45;;;;;;;25.08;56.37;101051.97;4952672;28;20042;-84
2023/06/22 02:36:31;;;;;;;13.80;7.40;;;;;;;25.06;57.00;101048.00;4953555;28;20046;-84
2023/06/22 02:39:26;;;;;;;;;;;;;;;24.91;57.35;101054.81;4958407;29;20525;-84
2023/06/22 02:42:21;;;;;;;15.40;7.65;;;;;;;24.98;57.31;101052.00;4951681;29;19914;-84
2023/06/22 02:45:11;;;;;;;;;;;;;;;25.04;56.96;101053.19;4949615;29;20054;-83
2023/06/22 02:48:08;;;;;;;12.05;7.18;;;;;;;24.93;57.35;101052.44;4942557;29;19915;-83
2023/06/22 02:51:00;;;;;;;14.43;7.88;;;;;;;24.92;57.67;101046.06;4948904;29;20050;-84
2023/06/22 02:53:57;;;;;;;17.13;8.85;;;;;;;24.98;57.36;101052.81;4961779;28;20066;-84
2023/06/22 02:56:47;;;;;;;17.88;8.82;;;;;;;24.91;57.48;101052.84;4982391;28;20046;-83
2023/06/22 02:59:42;;;;;;;19.67;8.50;;;;;;;25.04;57.16;101059.50;4947306;29;20046;-84
2023/06/22 03:02:36;;;;;;;20.60;8.82;;;;;;;25.00;57.27;101052.38;4945761;28;20055;-83
2023/06/22 03:05:28;;;;;;;;;;;;;;;24.97;57.43;101056.00;4931742;29;20050;-84
2023/06/22 03:08:24;;;;;;;17.13;8.73;;;;;;;25.08;57.15;101054.75;4943257;28;20305;-84
2023/06/22 03:11:16;;;;;;;16.75;8.77;;;;;;;25.12;57.32;101058.28;4955704;28;20054;-83
2023/06/22 03:14:11;;;;;;;19.85;10.55;;;;;;;25.01;57.06;101056.75;4968254;28;20528;-83
2023/06/22 03:17:03;;;;;;;18.02;8.77;;;;;;;25.04;56.82;101056.72;4972070;28;20034;-83
2023/06/22 03:19:57;;;;;;;16.27;9.27;;;;;;;25.10;56.59;101057.91;4945514;29;20058;-84
2023/06/22 03:22:52;;;;;;;22.42;7.75;;;;;;;25.14;56.73;101061.44;4948006;29;20050;-84
2023/06/22 03:25:48;;;;;;;16.35;8.43;;;;;;;25.06;56.61;101065.47;4995161;23;20062;-84
2023/06/22 03:28:42;;;;;;;12.93;7.57;;;;;;;25.06;57.02;101059.13;4950715;28;20046;-84
2023/06/22 03:31:35;;;;;;;;;;;;;;;25.12;57.00;101051.94;4952560;28;20047;-83
2023/06/22 03:34:28;;;;;;;19.95;7.88;;;;;;;25.18;56.71;101055.88;4946199;28;19919;-84
2023/06/22 03:37:18;;;;;;;17.65;7.13;;;;;;;25.16;56.60;101061.06;4942203;29;20046;-84
2023/06/22 03:40:13;;;;;;;17.90;7.95;;;;;;;25.13;56.28;101051.53;4926767;29;20047;-84
2023/06/22 03:43:05;;;;;;;12.63;7.28;;;;;;;25.06;56.48;101059.91;4937691;29;20066;-84
2023/06/22 03:46:01;;;;;;;16.35;7.55;;;;;;;25.12;56.52;101065.84;4958499;29;20537;-84
2023/06/22 03:48:55;;;;;;;23.60;7.40;;;;;;;25.16;55.92;101051.91;4947779;28;20070;-84
2023/06/22 03:51:50;;;;;;;12.27;6.85;;;;;;;25.17;55.95;101048.72;4927527;29;20051;-85
2023/06/22 03:54:42;;;;;;;12.35;6.75;;;;;;;25.22;55.64;101048.31;4923817;29;20525;-85
2023/06/22 03:57:32;;;;;;;17.30;8.07;;;;;;;25.19;55.75;101049.13;4935754;28;20061;-85
2023/06/22 04:00:24;;;;;;;18.90;6.35;;;;;;;25.24;55.51;101051.47;4937560;28;20066;-86
2023/06/22 04:03:18;;;;;;;18.17;5.70;;;;;;;25.24;55.23;101047.91;4936305;29;20414;-85
2023/06/22 04:06:13;;;;;;;13.80;5.80;;;;;;;25.23;54.59;101049.09;4927830;29;20081;-86
2023/06/22 04:09:05;;;;;;;;;;;;;;;25.25;55.05;101055.81;4907294;29;20677;-85
2023/06/22 04:11:55;;;;;;;10.88;5.38;;;;;;;25.21;54.79;101052.28;4931090;29;19915;-85
2023/06/22 04:14:47;;;;;;;16.23;5.47;;;;;;;25.30;54.57;101046.25;4915665;29;20055;-84
2023/06/22 04:17:41;;;;;;;12.65;6.00;;;;;;;25.27;54.16;101047.88;4951096;28;20062;-85
2023/06/22 04:20:36;;;;;;;11.68;5.32;;;;;;;25.34;54.00;101039.47;4945172;28;20520;-84
2023/06/22 04:23:30;;;;;;;12.07;5.47;;;;;;;25.26;55.21;101046.28;4933908;29;20050;-84
2023/06/22 04:26:25;;;;;;;17.73;4.53;;;;;;;25.32;54.69;101044.66;4926865;29;20052;-83
2023/06/22 04:29:17;;;;;;;17.35;5.65;;;;;;;25.54;54.89;101046.09;4959630;28;20054;-86
2023/06/22 04:32:12;;;;;;;17.38;5.15;;;;;;;25.70;53.93;101042.81;4941131;29;20039;-87
2023/06/22 04:35:07;;;;;;;14.80;5.28;;;;;;;25.92;53.78;101046.19;4935793;29;20059;-83
2023/06/22 04:37:58;;;;;;;17.08;5.72;;;;;;;25.92;54.71;101054.56;4936918;29;20529;-83
2023/06/22 04:40:51;;;;;;;15.38;5.38;;;;;;;26.05;53.93;101047.28;4934431;28;20062;-82
2023/06/22 04:43:40;;;;;;;15.27;5.93;;;;;;;26.04;53.48;101050.47;4935568;29;20533;-82
2023/06/22 04:46:35;;;;;;;15.18;5.22;;;;;;;25.97;53.61;101045.75;4926341;29;20059;-84
2023/06/22 04:49:40;;;;;;;9.18;5.07;;;;;;;25.98;53.80;101048.16;4935045;29;20047;-83
2023/06/22 04:52:32;;;;;;;;;;;;;;;25.84;54.48;101053.06;4934174;29;20050;-81
2023/06/22 04:55:24;;;;;;;19.02;5.18;;;;;;;25.85;54.55;101058.19;4937480;29;19918;-80
2023/06/22 04:58:19;;;;;;;14.25;5.20;;;;;;;25.89;54.87;101050.63;4944041;29;20043;-82
2023/06/22 05:01:14;;;;;;;11.40;4.00;;;;;;;25.97;54.77;101062.47;4938968;29;20046;-81
2023/06/22 05:04:06;;;;;;;;;;;;;;;26.03;54.65;101060.03;4952041;29;20040;-81
2023/06/22 05:06:59;;;;;;;21.10;5.28;;;;;;;26.06;54.92;101051.63;4956498;28;19919;-80
2023/06/22 05:09:55;;;;;;;9.18;4.43;;;;;;;26.10;54.98;101049.63;4926601;29;20064;-80
2023/06/22 05:12:45;;;;;;;14.13;3.97;;;;;;;26.14;54.86;101042.03;4941056;29;20050;-81
2023/06/22 05:15:36;;;;;;;8.15;5.30;;;;;;;26.16;54.93;101047.97;4917507;29;20529;-82
2023/06/22 05:18:27;;;;;;;14.15;4.57;;;;;;;26.21;54.87;101043.97;4940337;29;20423;-81
2023/06/22 05:21:22;;;;;;;13.70;4.90;;;;;;;26.26;54.85;101037.97;4940195;29;20051;-81
2023/06/22 05:24:17;;;;;;;8.63;3.95;;;;;;;26.29;54.76;101043.50;4939269;29;20051;-81
2023/06/22 05:27:13;;;;;;;11.82;4.80;;;;;;;26.33;54.79;101047.03;4930034;29;20051;-81
2023/06/22 05:30:05;;;;;;;;;;;;;;;26.36;54.90;101048.22;4938045;29;20042;-82
2023/06/22 05:32:57;;;;;;;12.32;4.82;;;;;;;26.39;54.86;101050.16;4930686;28;19915;-81
2023/06/22 05:35:52;;;;;;;9.68;3.75;;;;;;;26.42;54.79;101046.53;4941161;29;20433;-81
2023/06/22 05:38:46;;;;;;;13.00;4.57;;;;;;;26.44;54.48;101041.34;4942651;29;20623;-82
2023/06/22 05:41:41;;;;;;;7.20;4.30;;;;;;;26.47;54.66;101045.28;4935197;28;20054;-82
2023/06/22 05:44:33;;;;;;;;;;;;;;;26.49;54.76;101046.47;4946770;29;20513;-82
2023/06/22 05:47:27;;;;;;;17.13;4.70;;;;;;;26.50;54.40;101044.47;4957125;28;19919;-82
2023/06/22 05:50:17;;;;;;;11.63;4.13;;;;;;;26.55;54.76;101049.59;4921567;29;20051;-82
2023/06/22 05:53:09;;;;;;;9.15;3.78;;;;;;;26.56;54.75;101049.19;4934977;29;20047;-81
2023/06/22 05:56:04;;;;;;;13.38;3.63;;;;;;;26.59;54.47;101047.53;4929038;28;20050;-82
2023/06/22 05:58:58;;;;;;;12.38;4.03;;;;;;;26.62;54.78;101046.69;4936655;29;20051;-83
2023/06/22 06:01:49;;;;;;;;;;;;;;;26.65;54.47;101043.09;4945165;29;20438;-82
2023/06/22 06:04:41;;;;;;;10.82;4.45;;;;;;;26.68;54.67;101045.03;4940092;29;19919;-82
2023/06/22 06:07:34;;;;;;;11.00;3.65;;;;;;;26.70;54.62;101045.41;4934197;29;20529;-82
2023/06/22 06:10:29;;;;;;;8.73;4.35;;;;;;;26.73;54.28;101044.56;4941783;29;20055;-82
2023/06/22 06:13:21;;;;;;;9.65;3.60;;;;;;;26.73;54.27;101045.38;4943810;29;20059;-82
2023/06/22 06:16:11;;;;;;;8.55;4.10;;;;;;;26.76;54.65;101052.13;4945446;29;20398;-82
2023/06/22 06:19:03;;;;;;;9.30;4.47;;;;;;;26.80;54.67;101048.06;4944296;28;20043;-82
2023/06/22 06:21:57;;;;;;;12.23;4.25;;;;;;;26.82;54.58;101051.22;4945029;29;20063;-82
2023/06/22 06:24:50;;;;;;;9.63;4.10;;;;;;;26.83;54.47;101047.22;4953339;29;20047;-81
2023/06/22 06:27:44;;;;;;;8.35;3.70;;;;;;;26.87;53.90;101036.03;4930653;29;20410;-81
2023/06/22 06:30:36;;;;;;;12.45;3.85;;;;;;;26.88;54.03;101036.84;4972260;28;20051;-81
2023/06/22 06:33:31;;;;;;;11.27;4.03;;;;;;;26.92;54.22;101043.94;4947568;28;20046;-82
2023/06/22 06:36:24;;;;;;;8.75;4.43;;;;;;;26.94;54.20;101047.13;4946032;29;20046;-81
2023/06/22 06:39:16;;;;;;;8.63;4.30;;;;;;;26.94;53.91;101047.13;4949476;28;20046;-81
2023/06/22 06:42:11;;;;;;;12.65;3.83;;;;;;;26.98;53.95;101053.44;4929128;29;20549;-82
2023/06/22 06:45:06;;;;;;;7.53;3.15;;;;;;;27.00;53.83;101073.38;4927474;29;20055;-81
2023/06/22 06:47:58;;;;;;;7.40;4.05;;;;;;;27.01;53.90;101066.59;4942916;28;20051;-82
2023/06/22 06:50:50;;;;;;;7.07;3.17;;;;;;;27.04;53.75;101067.72;4949045;28;20057;-84
2023/06/22 06:53:42;;;;;;;11.55;3.92;;;;;;;27.07;53.97;101064.88;4945799;28;20058;-83
2023/06/22 06:56:35;;;;;;;13.43;4.10;;;;;;;27.07;53.73;101061.31;4927444;29;20047;-84
2023/06/22 06:59:27;;;;;;;7.70;4.20;;;;;;;27.09;53.46;101053.31;4939436;29;20046;-83
2023/06/22 07:02:21;;;;;;;10.93;3.53;;;;;;;27.11;53.87;101048.91;4933349;29;20046;-84
2023/06/22 07:05:16;;;;;;;9.93;4.60;;;;;;;27.12;53.67;101046.91;4942568;29;20074;-81
2023/06/22 07:08:12;;;;;;;7.07;3.97;;;;;;;27.13;53.49;101049.25;4941636;29;20058;-81
2023/06/22 07:11:06;;;;;;;9.48;4.45;;;;;;;27.15;53.33;101038.47;4934080;29;20043;-82
2023/06/22 07:13:58;;;;;;;;;;;;;;;27.17;53.54;101041.59;4938737;28;20048;-80
2023/06/22 07:16:50;;;;;;;12.65;4.10;;;;;;;27.16;53.30;101042.84;4951237;28;19915;-82
2023/06/22 07:19:40;;;;;;;5.40;3.50;;;;;;;27.19;53.01;101042.00;4929413;29;20411;-80
2023/06/22 07:22:34;;;;;;;8.90;4.35;;;;;;;27.22;53.32;101038.38;4934278;29;20047;-82
2023/06/22 07:25:27;;;;;;;12.38;3.80;;;;;;;27.24;53.60;101038.72;4902125;29;20059;-79
2023/06/22 07:28:22;;;;;;;10.35;4.30;;;;;;;27.26;53.75;101051.47;4954189;28;20054;-81
2023/06/22 07:31:17;;;;;;;11.40;4.07;;;;;;;27.26;53.52;101052.28;4954039;28;20514;-82
2023/06/22 07:34:09;;;;;;;;;;;;;;;27.28;53.26;101043.47;4931608;29;20406;-80
2023/06/22 07:37:04;;;;;;;6.57;3.70;;;;;;;27.30;53.43;101038.25;4943412;29;19915;-81
2023/06/22 07:40:01;;;;;;;8.52;3.80;;;;;;;27.32;53.50;101039.41;4936541;29;20561;-81
2023/06/22 07:42:54;;;;;;;10.32;3.53;;;;;;;27.31;53.61;101031.44;4921117;29;20054;-80
2023/06/22 07:45:49;;;;;;;;;;;;;;;27.36;53.75;101033.78;4936657;29;20050;-80
2023/06/22 07:48:44;;;;;;;7.40;3.72;;;;;;;27.38;53.38;101039.75;4940136;29;19915;-82
2023/06/22 07:51:38;;;;;;;13.10;3.83;;;;;;;27.39;53.54;101038.50;4924380;29;20051;-82
2023/06/22 07:54:33;;;;;;;;;;;;;;;27.41;53.38;101041.69;4936476;29;20063;-81
2023/06/22 07:57:34;;;;;;;31.30;6.95;;;;;;;27.42;53.51;101038.47;4925674;29;19918;-81
2023/06/22 08:00:28;;;;;;;11.48;4.60;;;;;;;27.43;53.56;101047.63;4936481;29;20050;-80
2023/06/22 08:03:20;;;;;;;;;;;;;;;27.45;53.35;101037.59;4939308;29;20050;-81
2023/06/22 08:06:14;;;;;;;13.55;4.25;;;;;;;27.47;53.38;101049.16;4931720;29;20389;-81
2023/06/22 08:09:06;;;;;;;12.50;4.30;;;;;;;27.50;53.07;101058.72;4938821;28;20059;-81
2023/06/22 08:11:56;;;;;;;16.88;4.53;;;;;;;27.52;53.18;101053.50;4940044;28;20045;-80
2023/06/22 08:14:51;;;;;;;20.23;4.30;;;;;;;27.55;53.19;101052.66;4927419;29;20117;-81
2023/06/22 08:17:45;;;;;;;15.27;4.38;;;;;;;27.58;53.31;101057.41;4948298;28;20042;-81
2023/06/22 08:20:38;;;;;;;17.65;4.85;;;;;;;27.60;52.94;101060.56;4926826;29;20042;-82
2023/06/22 08:23:27;;;;;;;;;;;;;;;27.61;52.91;101057.34;4920608;29;20533;-83
2023/06/22 08:26:22;;;;;;;14.00;3.97;;;;;;;27.63;53.31;101054.13;4935858;29;19936;-83
2023/06/22 08:29:16;;;;;;;8.90;4.28;;;;;;;27.68;52.99;101050.06;4923200;29;20046;-83
2023/06/22 08:32:08;;;;;;;;;;;;;;;27.69;52.40;101055.22;4939835;29;20407;-81
2023/06/22 08:35:03;;;;;;;14.23;3.55;;;;;;;27.71;52.59;101050.00;4926448;29;20544;-83
2023/06/22 08:37:55;;;;;;;12.95;3.72;;;;;;;27.71;52.74;101038.81;4954048;28;20058;-81
2023/06/22 08:40:47;;;;;;;10.40;4.53;;;;;;;27.72;52.58;101040.41;4953877;28;20055;-82
2023/06/22 08:43:41;;;;;;;8.48;4.10;;;;;;;27.76;52.56;101045.94;4968451;28;20054;-82
2023/06/22 08:46:36;;;;;;;11.98;4.05;;;;;;;27.77;52.49;101037.13;4958567;28;20047;-82
2023/06/22 08:49:31;;;;;;;16.13;5.07;;;;;;;27.79;52.29;101029.09;4957253;28;20111;-82
2023/06/22 08:52:23;;;;;;;6.80;3.65;;;;;;;27.81;52.65;101040.66;4953507;28;20054;-80
2023/06/22 08:55:15;;;;;;;10.98;3.90;;;;;;;27.84;52.51;101036.19;4956853;28;20050;-81
2023/06/22 08:58:08;;;;;;;9.40;3.83;;;;;;;27.82;52.63;101031.06;4956283;28;20042;-80
2023/06/22 09:01:02;;;;;;;9.70;4.03;;;;;;;27.84;52.60;101025.81;4945151;28;20050;-81
2023/06/22 09:03:54;;;;;;;;;;;;;;;27.85;52.47;101027.41;4956799;28;20433;-83
2023/06/22 09:06:46;;;;;;;11.88;4.05;;;;;;;27.87;52.61;101024.19;4942282;29;20298;-82
2023/06/22 09:09:40;;;;;;;11.23;4.15;;;;;;;27.89;52.27;101030.91;4943090;28;20043;-82
2023/06/22 09:12:32;;;;;;;;;;;;;;;27.91;52.44;101025.69;4943235;29;20046;-83
2023/06/22 09:15:26;;;;;;;17.30;4.30;;;;;;;27.91;52.13;101020.09;4954429;28;20377;-82
2023/06/22 09:18:21;;;;;;;12.40;3.80;;;;;;;27.96;52.19;101025.22;4955917;28;20047;-83
2023/06/22 09:21:16;;;;;;;6.55;4.07;;;;;;;27.97;52.05;101023.19;4939357;29;20418;-83
2023/06/22 09:24:11;;;;;;;7.68;4.15;;;;;;;27.97;51.85;101026.00;4947541;23;20086;-80
2023/06/22 09:27:06;;;;;;;7.63;3.53;;;;;;;28.02;51.92;101020.72;4953703;28;20043;-79
2023/06/22 09:29:58;;;;;;;;;;;;;;;28.01;51.79;101016.31;4959787;28;20541;-79
2023/06/22 09:32:52;;;;;;;13.07;4.00;;;;;;;28.04;51.57;101015.47;4946788;29;19919;-79
2023/06/22 09:35:44;;;;;;;8.60;4.00;;;;;;;28.05;51.59;101007.88;4947040;29;20047;-79
2023/06/22 09:38:36;;;;;;;6.90;3.97;;;;;;;28.07;51.74;101009.03;4957760;28;20047;-79
2023/06/22 09:41:28;;;;;;;;;;;;;;;28.09;51.14;101005.78;4945247;29;20116;-79
2023/06/22 09:44:23;;;;;;;8.10;4.30;;;;;;;28.11;51.55;100991.38;4956494;29;19915;-80
2023/06/22 09:47:15;;;;;;;;;;;;;;;28.15;51.30;100990.13;4958525;28;20533;-80
2023/06/22 09:50:11;;;;;;;8.30;4.30;;;;;;;28.18;51.35;100980.91;4947526;29;19915;-80
2023/06/22 09:53:03;;;;;;;11.43;4.38;;;;;;;28.20;51.20;100988.84;4932463;29;20050;-80
2023/06/22 09:55:57;;;;;;;7.38;4.00;;;;;;;28.23;50.94;100966.41;4944099;29;20047;-80
2023/06/22 09:58:52;;;;;;;9.25;4.63;;;;;;;28.23;51.26;100957.22;4945213;29;20043;-80
2023/06/22 10:01:44;;;;;;;6.50;3.72;;;;;;;28.30;50.75;100957.06;4956409;29;20046;-80
2023/06/22 10:04:39;;;;;;;10.88;4.35;;;;;;;28.33;50.66;100953.41;4962709;28;20433;-80
2023/06/22 10:07:31;;;;;;;;;;;;;;;28.37;51.01;100956.94;4955010;29;20043;-80
2023/06/22 10:10:23;;;;;;;6.10;4.40;;;;;;;36.12;34.05;100949.38;4946844;29;19915;-80
2023/06/22 10:13:16;;;;;;;7.88;4.38;;;;;;;39.97;27.25;100956.06;4962236;28;20054;-80
2023/06/22 10:16:08;;;;;;;7.70;3.60;;;;;;;37.55;29.24;100946.59;4961001;29;20410;-80
2023/06/22 10:19:02;;;;;;;13.75;4.70;;;;;;;34.19;32.76;100950.81;4947876;29;20050;-80
2023/06/22 10:21:54;;;;;;;12.20;4.90;;;;;;;32.99;34.02;100953.88;4963118;28;20054;-79
2023/06/22 10:24:49;;;;;;;10.65;4.32;;;;;;;33.49;35.10;100958.28;4960697;29;20521;-80
2023/06/22 10:27:47;;;;;;;12.35;3.83;;;;;;;33.73;34.31;100959.25;4962802;28;20050;-79
2023/06/22 10:30:46;;;;;;;7.82;4.35;;;;;;;34.34;34.18;100946.88;4959870;28;20046;-79
2023/06/22 10:33:43;;;;;;;16.70;4.43;;;;;;;35.34;32.33;100957.06;4956040;28;20050;-79
2023/06/22 10:36:38;;;;;;;11.88;5.38;;;;;;;40.02;25.88;100961.00;4963535;28;20546;-79
2023/06/22 10:39:32;;;;;;;14.38;5.55;;;;;;;41.70;23.20;100968.19;4957890;28;20063;-80
2023/06/22 10:42:27;;;;;;;19.15;4.75;;;;;;;42.78;22.07;100955.50;4965413;28;20054;-80
2023/06/22 10:45:22;;;;;;;12.52;4.78;;;;;;;43.21;21.65;100959.25;4950043;28;20422;-79
2023/06/22 10:48:14;;;;;;;13.65;5.22;;;;;;;43.14;21.57;100953.34;4968602;28;20046;-80
2023/06/22 10:51:09;;;;;;;11.90;5.65;;;;;;;42.59;21.95;100969.72;4970067;28;20051;-80
2023/06/22 10:54:04;;;;;;;15.45;5.65;;;;;;;43.32;21.45;100958.34;4962091;28;20073;-80
2023/06/22 10:56:53;;;;;;;11.57;5.07;;;;;;;44.01;20.68;100954.88;4957453;28;20049;-80
2023/06/22 10:59:40;;;;;;;7.25;3.83;;;;;;;44.24;20.35;100958.97;4958416;28;20046;-80
2023/06/22 11:02:35;;;;;;;11.43;4.20;;;;;;;42.86;21.92;100957.28;4938336;28;20054;-81
2023/06/22 11:05:30;;;;;;;274.38;64.15;;;;;;;45.24;19.46;100959.34;4936081;29;20062;-81
2023/06/22 11:08:24;;;;;;;54.30;16.05;;;;;;;43.66;20.88;100962.38;4959635;28;20043;-80
2023/06/22 11:11:17;;;;;;;88.72;22.02;;;;;;;40.92;23.82;100947.59;4930092;29;20066;-81
2023/06/22 11:14:09;;;;;;;69.33;14.73;;;;;;;37.18;28.96;100930.06;4946543;29;20040;-80
2023/06/22 11:17:01;;;;;;;48.45;11.88;;;;;;;34.78;32.69;100937.19;4958082;28;20044;-79
2023/06/22 11:19:53;;;;;;;48.33;12.38;;;;;;;34.16;34.31;100923.50;4949998;29;20040;-80
2023/06/22 11:22:46;;;;;;;48.15;13.40;;;;;;;33.25;35.78;100912.19;4944489;29;20043;-81
2023/06/22 11:25:37;;;;;;;27.95;9.15;;;;;;;32.86;36.61;100917.38;4952057;29;20043;-82
2023/06/22 11:28:30;;;;;;;33.15;9.23;;;;;;;32.14;37.88;100914.94;4950773;29;20058;-81
2023/06/22 11:31:24;;;;;;;26.40;8.15;;;;;;;32.22;38.15;100916.22;4945282;28;20046;-82
2023/06/22 11:34:20;;;;;;;24.15;8.02;;;;;;;32.01;38.81;100912.13;4957374;29;20058;-79
2023/06/22 11:37:14;;;;;;;28.80;7.72;;;;;;;31.88;39.03;100910.63;4946232;29;20047;-79
2023/06/22 11:40:10;;;;;;;16.20;6.38;;;;;;;31.79;39.16;100894.47;4948004;29;20042;-80
2023/06/22 11:43:04;;;;;;;22.13;8.43;;;;;;;31.75;39.46;100885.38;4951573;28;20046;-82
2023/06/22 11:45:59;;;;;;;19.35;6.22;;;;;;;31.56;39.73;100883.63;4949872;28;20058;-81
2023/06/22 11:48:48;;;;;;;12.98;6.03;;;;;;;31.10;41.23;100876.78;4950141;28;20406;-80
2023/06/22 11:51:41;;;;;;;21.05;7.13;;;;;;;30.97;42.29;100868.34;4955824;28;20535;-81
2023/06/22 11:54:35;;;;;;;12.27;5.15;;;;;;;31.75;39.87;100868.47;4957794;28;20055;-81
2023/06/22 11:57:28;;;;;;;17.80;6.47;;;;;;;31.54;40.25;100869.25;4950573;29;20054;-81
2023/06/22 12:00:20;;;;;;;8.68;5.07;;;;;;;31.17;41.28;100860.47;4932611;28;20041;-82
2023/06/22 12:03:16;;;;;;;11.50;5.32;;;;;;;31.15;41.29;100862.94;4953703;28;20053;-81
2023/06/22 12:06:09;;;;;;;12.53;4.80;;;;;;;30.73;42.66;100848.25;4961040;28;20039;-81
2023/06/22 12:09:02;;;;;;;12.80;4.43;;;;;;;31.04;41.23;100848.47;4963822;28;20054;-81
2023/06/22 12:11:57;;;;;;;12.48;6.53;;;;;;;31.47;40.45;100844.97;4950269;28;20054;-82
2023/06/22 12:14:52;;;;;;;11.02;4.60;;;;;;;31.28;40.95;100844.03;4926009;29;20055;-81
2023/06/22 12:17:44;;;;;;;13.70;4.80;;;;;;;31.31;40.99;100836.69;4918256;29;20050;-81
2023/06/22 12:20:38;;;;;;;40.83;5.95;;;;;;;30.99;42.06;100824.50;4938357;29;20505;-81
2023/06/22 12:23:30;;;;;;;12.60;4.80;;;;;;;31.81;40.21;100819.63;4942164;29;20063;-81
2023/06/22 12:26:24;;;;;;;31.38;6.85;;;;;;;31.75;40.84;100824.28;4940105;29;20046;-82
2023/06/22 12:29:16;;;;;;;33.60;6.15;;;;;;;31.63;40.54;100821.53;4950056;29;20058;-81
2023/06/22 12:32:12;;;;;;;17.88;5.50;;;;;;;31.46;41.19;100814.50;4957105;28;20066;-81
2023/06/22 12:35:07;;;;;;;26.35;5.60;;;;;;;31.47;40.96;100807.63;4940821;29;20071;-81
2023/06/22 12:37:59;;;;;;;18.42;5.60;;;;;;;31.58;41.17;100799.63;4954149;29;20069;-81
2023/06/22 12:40:53;;;;;;;15.13;5.18;;;;;;;31.25;41.49;100794.34;4948271;29;20051;-81
2023/06/22 12:43:49;;;;;;;16.60;5.55;;;;;;;31.70;40.33;100802.34;4945848;29;20123;-81
2023/06/22 12:46:43;;;;;;;19.33;5.15;;;;;;;31.47;41.11;100799.19;4931128;29;20050;-81
2023/06/22 12:49:38;;;;;;;11.18;4.72;;;;;;;31.48;41.05;100801.56;4946888;29;20062;-81
2023/06/22 12:52:28;;;;;;;9.35;4.80;;;;;;;31.60;41.04;100802.75;4932205;29;20054;-81
2023/06/22 12:55:23;;;;;;;13.07;4.43;;;;;;;31.90;41.40;100796.38;4948578;28;20046;-82
2023/06/22 12:58:17;;;;;;;20.13;6.40;;;;;;;31.62;41.37;100795.44;4959240;28;20042;-83
2023/06/22 13:01:12;;;;;;;7.00;4.57;;;;;;;31.31;41.65;100800.94;4957316;29;20549;-82
2023/06/22 13:04:06;;;;;;;7.00;4.20;;;;;;;32.32;40.39;100801.63;4958657;28;20042;-82
2023/06/22 13:07:03;;;;;;;10.13;4.97;;;;;;;32.39;39.27;100793.69;4944922;29;20045;-82
2023/06/22 13:09:57;;;;;;;18.92;6.00;;;;;;;32.17;40.19;100790.94;4947325;29;20042;-82
2023/06/22 13:12:49;;;;;;;13.90;4.63;;;;;;;32.21;39.95;100788.75;4958402;29;20050;-82
2023/06/22 13:15:44;;;;;;;13.90;5.80;;;;;;;32.43;38.99;100787.91;4958060;29;20398;-81
2023/06/22 13:18:35;;;;;;;11.40;5.15;;;;;;;32.28;39.74;100784.09;4958446;28;20055;-81
2023/06/22 13:21:30;;;;;;;14.38;4.57;;;;;;;32.34;39.23;100782.25;4924685;28;20055;-82
2023/06/22 13:24:24;;;;;;;15.38;5.72;;;;;;;32.44;40.24;100781.84;4946017;28;20054;-82
2023/06/22 13:27:17;;;;;;;20.17;5.85;;;;;;;32.64;38.99;100784.25;4940393;29;20055;-81
2023/06/22 13:30:13;;;;;;;19.77;5.50;;;;;;;32.28;38.77;100778.47;4953818;29;20055;-81